sensor_id;sensor_type;location;lat;lon;timestamp;pressure;altitude;pressure_sealevel;temperature;humidity
25947;BME280;13745;51.470;9.894;2023-05-22T00:00:00;99176.13;;;22.67;60.13
25947;BME280;13745;51.470;9.894;2023-05-22T00:02:45;99172.13;;;22.61;59.67
25947;BME280;13745;51.470;9.894;2023-05-22T00:05:31;99177.59;;;22.58;60.12
25947;BME280;13745;51.470;9.894;2023-05-22T00:08:17;99168.19;;;22.54;59.76
25947;BME280;13745;51.470;9.894;2023-05-22T00:11:03;99167.53;;;22.51;60.05
25947;BME280;13745;51.470;9.894;2023-05-22T00:13:48;99171.13;;;22.50;59.71
25947;BME280;13745;51.470;9.894;2023-05-22T00:16:33;99180.09;;;22.47;59.69
25947;BME280;13745;51.470;9.894;2023-05-22T00:19:18;99173.25;;;22.45;60.07
25947;BME280;13745;51.470;9.894;2023-05-22T00:22:05;99168.97;;;22.42;60.00
25947;BME280;13745;51.470;9.894;2023-05-22T00:24:50;99169.19;;;22.39;59.86
25947;BME280;13745;51.470;9.894;2023-05-22T00:27:36;99171.09;;;22.37;59.82
25947;BME280;13745;51.470;9.894;2023-05-22T00:30:21;99167.78;;;22.33;59.71
25947;BME280;13745;51.470;9.894;2023-05-22T00:33:06;99167.06;;;22.31;59.75
25947;BME280;13745;51.470;9.894;2023-05-22T00:35:51;99169.16;;;22.26;59.44
25947;BME280;13745;51.470;9.894;2023-05-22T00:38:36;99168.72;;;22.20;59.40
25947;BME280;13745;51.470;9.894;2023-05-22T00:41:21;99168.25;;;22.13;59.86
25947;BME280;13745;51.470;9.894;2023-05-22T00:44:07;99169.47;;;22.07;59.39
25947;BME280;13745;51.470;9.894;2023-05-22T00:46:53;99168.97;;;22.01;59.55
25947;BME280;13745;51.470;9.894;2023-05-22T00:49:38;99164.22;;;21.93;59.37
25947;BME280;13745;51.470;9.894;2023-05-22T00:52:23;99172.50;;;21.87;59.70
25947;BME280;13745;51.470;9.894;2023-05-22T00:55:08;99173.75;;;21.81;59.55
25947;BME280;13745;51.470;9.894;2023-05-22T00:57:54;99172.25;;;21.77;59.58
25947;BME280;13745;51.470;9.894;2023-05-22T01:00:41;99183.81;;;21.75;59.51
25947;BME280;13745;51.470;9.894;2023-05-22T01:03:26;99182.22;;;21.72;59.95
25947;BME280;13745;51.470;9.894;2023-05-22T01:06:13;99179.78;;;21.69;59.64
25947;BME280;13745;51.470;9.894;2023-05-22T01:08:58;99181.66;;;21.67;59.77
25947;BME280;13745;51.470;9.894;2023-05-22T01:11:45;99176.69;;;21.63;59.66
25947;BME280;13745;51.470;9.894;2023-05-22T01:14:41;99177.88;;;21.43;61.40
25947;BME280;13745;51.470;9.894;2023-05-22T01:17:33;99178.19;;;21.38;61.45
25947;BME280;13745;51.470;9.894;2023-05-22T01:20:28;99178.28;;;21.37;62.28
25947;BME280;13745;51.470;9.894;2023-05-22T01:23:37;99181.78;;;21.37;62.55
25947;BME280;13745;51.470;9.894;2023-05-22T01:26:45;99181.03;;;21.35;62.62
25947;BME280;13745;51.470;9.894;2023-05-22T01:29:45;99188.16;;;21.33;62.48
25947;BME280;13745;51.470;9.894;2023-05-22T01:32:33;99174.41;;;21.28;62.99
25947;BME280;13745;51.470;9.894;2023-05-22T01:35:21;99177.28;;;21.23;63.21
25947;BME280;13745;51.470;9.894;2023-05-22T01:38:07;99181.81;;;21.21;63.01
25947;BME280;13745;51.470;9.894;2023-05-22T01:40:55;99170.59;;;21.18;63.33
25947;BME280;13745;51.470;9.894;2023-05-22T01:43:40;99181.22;;;21.16;63.30
25947;BME280;13745;51.470;9.894;2023-05-22T01:46:26;99170.78;;;21.15;63.74
25947;BME280;13745;51.470;9.894;2023-05-22T01:49:12;99176.06;;;21.15;63.85
25947;BME280;13745;51.470;9.894;2023-05-22T01:52:04;99175.41;;;21.11;63.83
25947;BME280;13745;51.470;9.894;2023-05-22T01:54:54;99171.06;;;21.10;64.30
25947;BME280;13745;51.470;9.894;2023-05-22T01:57:45;99168.44;;;21.10;64.27
25947;BME280;13745;51.470;9.894;2023-05-22T02:00:34;99170.19;;;21.10;64.14
25947;BME280;13745;51.470;9.894;2023-05-22T02:03:22;99162.38;;;21.08;64.45
25947;BME280;13745;51.470;9.894;2023-05-22T02:06:13;99167.66;;;21.08;64.38
25947;BME280;13745;51.470;9.894;2023-05-22T02:08:59;99167.56;;;21.10;64.37
25947;BME280;13745;51.470;9.894;2023-05-22T02:11:47;99168.44;;;21.10;64.70
25947;BME280;13745;51.470;9.894;2023-05-22T02:14:33;99170.97;;;21.12;64.99
25947;BME280;13745;51.470;9.894;2023-05-22T02:17:19;99159.59;;;21.11;64.54
25947;BME280;13745;51.470;9.894;2023-05-22T02:20:06;99153.53;;;21.09;64.90
25947;BME280;13745;51.470;9.894;2023-05-22T02:22:58;99155.31;;;21.09;64.71
25947;BME280;13745;51.470;9.894;2023-05-22T02:25:43;99156.28;;;21.08;65.07
25947;BME280;13745;51.470;9.894;2023-05-22T02:28:28;99156.38;;;21.06;65.13
25947;BME280;13745;51.470;9.894;2023-05-22T02:31:14;99144.22;;;21.03;64.61
25947;BME280;13745;51.470;9.894;2023-05-22T02:34:01;99144.31;;;21.02;64.83
25947;BME280;13745;51.470;9.894;2023-05-22T02:36:47;99147.13;;;20.99;65.04
25947;BME280;13745;51.470;9.894;2023-05-22T02:39:35;99141.00;;;20.98;65.37
25947;BME280;13745;51.470;9.894;2023-05-22T02:42:22;99147.97;;;20.99;65.13
25947;BME280;13745;51.470;9.894;2023-05-22T02:45:08;99143.66;;;20.98;65.25
25947;BME280;13745;51.470;9.894;2023-05-22T02:47:53;99145.34;;;20.99;65.22
25947;BME280;13745;51.470;9.894;2023-05-22T02:50:39;99142.81;;;20.98;65.13
25947;BME280;13745;51.470;9.894;2023-05-22T02:53:24;99141.94;;;20.97;65.31
25947;BME280;13745;51.470;9.894;2023-05-22T02:56:10;99133.28;;;20.95;65.73
25947;BME280;13745;51.470;9.894;2023-05-22T02:58:55;99132.53;;;20.93;65.67
25947;BME280;13745;51.470;9.894;2023-05-22T03:01:40;99131.78;;;20.91;65.57
25947;BME280;13745;51.470;9.894;2023-05-22T03:04:27;99131.13;;;20.88;65.70
25947;BME280;13745;51.470;9.894;2023-05-22T03:07:12;99133.06;;;20.84;65.43
25947;BME280;13745;51.470;9.894;2023-05-22T03:09:57;99138.44;;;20.83;65.91
25947;BME280;13745;51.470;9.894;2023-05-22T03:12:43;99130.88;;;20.76;66.01
25947;BME280;13745;51.470;9.894;2023-05-22T03:15:29;99133.72;;;20.73;65.70
25947;BME280;13745;51.470;9.894;2023-05-22T03:18:21;99133.91;;;20.70;65.73
25947;BME280;13745;51.470;9.894;2023-05-22T03:21:06;99132.28;;;20.68;65.89
25947;BME280;13745;51.470;9.894;2023-05-22T03:23:54;99128.91;;;20.66;66.00
25947;BME280;13745;51.470;9.894;2023-05-22T03:26:39;99126.25;;;20.66;65.85
25947;BME280;13745;51.470;9.894;2023-05-22T03:29:29;99124.56;;;20.65;65.95
25947;BME280;13745;51.470;9.894;2023-05-22T03:32:14;99120.03;;;20.67;65.93
25947;BME280;13745;51.470;9.894;2023-05-22T03:34:59;99125.31;;;20.67;66.30
25947;BME280;13745;51.470;9.894;2023-05-22T03:37:44;99126.16;;;20.67;66.16
25947;BME280;13745;51.470;9.894;2023-05-22T03:40:31;99120.03;;;20.67;66.02
25947;BME280;13745;51.470;9.894;2023-05-22T03:43:16;99124.31;;;20.69;66.42
25947;BME280;13745;51.470;9.894;2023-05-22T03:46:03;99128.72;;;20.69;66.14
25947;BME280;13745;51.470;9.894;2023-05-22T03:48:48;99125.16;;;20.70;66.06
25947;BME280;13745;51.470;9.894;2023-05-22T03:51:33;99121.56;;;20.71;66.18
25947;BME280;13745;51.470;9.894;2023-05-22T03:54:18;99121.47;;;20.72;66.35
25947;BME280;13745;51.470;9.894;2023-05-22T03:57:03;99119.78;;;20.71;66.31
25947;BME280;13745;51.470;9.894;2023-05-22T03:59:49;99123.06;;;20.75;66.15
25947;BME280;13745;51.470;9.894;2023-05-22T04:02:35;99118.59;;;20.77;66.43
25947;BME280;13745;51.470;9.894;2023-05-22T04:05:23;99120.00;;;20.83;66.47
25947;BME280;13745;51.470;9.894;2023-05-22T04:08:08;99117.09;;;20.87;66.27
25947;BME280;13745;51.470;9.894;2023-05-22T04:10:54;99121.22;;;20.91;66.61
25947;BME280;13745;51.470;9.894;2023-05-22T04:13:39;99123.50;;;20.97;66.54
25947;BME280;13745;51.470;9.894;2023-05-22T04:16:24;99121.50;;;21.01;66.40
25947;BME280;13745;51.470;9.894;2023-05-22T04:19:11;99129.25;;;21.04;66.34
25947;BME280;13745;51.470;9.894;2023-05-22T04:21:57;99131.53;;;21.10;66.55
25947;BME280;13745;51.470;9.894;2023-05-22T04:24:42;99134.06;;;21.12;66.57
25947;BME280;13745;51.470;9.894;2023-05-22T04:27:31;99132.94;;;21.16;66.14
25947;BME280;13745;51.470;9.894;2023-05-22T04:30:17;99135.31;;;21.20;66.58
25947;BME280;13745;51.470;9.894;2023-05-22T04:33:02;99135.94;;;21.24;66.66
25947;BME280;13745;51.470;9.894;2023-05-22T04:35:49;99143.63;;;21.28;66.21
25947;BME280;13745;51.470;9.894;2023-05-22T04:38:35;99137.22;;;21.33;66.58
25947;BME280;13745;51.470;9.894;2023-05-22T04:41:20;99135.16;;;21.38;66.20
25947;BME280;13745;51.470;9.894;2023-05-22T04:44:09;99141.84;;;21.43;66.34
25947;BME280;13745;51.470;9.894;2023-05-22T04:46:54;99146.63;;;21.51;66.08
25947;BME280;13745;51.470;9.894;2023-05-22T04:49:41;99142.75;;;21.56;66.65
25947;BME280;13745;51.470;9.894;2023-05-22T04:52:27;99145.97;;;21.62;66.41
25947;BME280;13745;51.470;9.894;2023-05-22T04:55:12;99142.81;;;21.83;65.66
25947;BME280;13745;51.470;9.894;2023-05-22T04:57:58;99142.53;;;21.88;65.68
25947;BME280;13745;51.470;9.894;2023-05-22T05:00:42;99145.16;;;21.88;65.45
25947;BME280;13745;51.470;9.894;2023-05-22T05:03:29;99145.06;;;21.90;65.26
25947;BME280;13745;51.470;9.894;2023-05-22T05:06:15;99143.16;;;21.92;65.45
25947;BME280;13745;51.470;9.894;2023-05-22T05:09:02;99139.50;;;21.94;65.31
25947;BME280;13745;51.470;9.894;2023-05-22T05:11:47;99139.41;;;21.96;64.95
25947;BME280;13745;51.470;9.894;2023-05-22T05:14:31;99130.31;;;22.00;65.25
25947;BME280;13745;51.470;9.894;2023-05-22T05:17:16;99137.03;;;21.91;65.78
25947;BME280;13745;51.470;9.894;2023-05-22T05:20:01;99134.97;;;22.10;65.42
25947;BME280;13745;51.470;9.894;2023-05-22T05:22:49;99134.28;;;22.07;65.26
25947;BME280;13745;51.470;9.894;2023-05-22T05:25:36;99135.59;;;22.14;65.77
25947;BME280;13745;51.470;9.894;2023-05-22T05:28:23;99135.75;;;22.25;65.89
25947;BME280;13745;51.470;9.894;2023-05-22T05:31:09;99133.38;;;22.35;65.60
25947;BME280;13745;51.470;9.894;2023-05-22T05:34:15;99138.06;;;22.44;66.03
25947;BME280;13745;51.470;9.894;2023-05-22T05:37:07;99141.88;;;22.53;65.38
25947;BME280;13745;51.470;9.894;2023-05-22T05:39:54;99144.66;;;22.64;65.75
25947;BME280;13745;51.470;9.894;2023-05-22T05:42:40;99137.72;;;22.76;65.89
25947;BME280;13745;51.470;9.894;2023-05-22T05:48:11;99142.22;;;23.01;65.65
25947;BME280;13745;51.470;9.894;2023-05-22T05:51:00;99144.13;;;23.11;64.97
25947;BME280;13745;51.470;9.894;2023-05-22T05:53:50;99143.38;;;23.22;64.98
25947;BME280;13745;51.470;9.894;2023-05-22T05:56:35;99149.50;;;23.35;65.29
25947;BME280;13745;51.470;9.894;2023-05-22T05:59:23;99138.41;;;23.43;65.01
25947;BME280;13745;51.470;9.894;2023-05-22T06:02:32;99141.34;;;23.51;64.63
25947;BME280;13745;51.470;9.894;2023-05-22T06:05:19;99142.81;;;23.55;65.11
25947;BME280;13745;51.470;9.894;2023-05-22T06:08:07;99146.09;;;23.59;64.52
25947;BME280;13745;51.470;9.894;2023-05-22T06:10:52;99140.50;;;23.63;64.91
25947;BME280;13745;51.470;9.894;2023-05-22T06:13:50;99138.50;;;23.67;64.16
25947;BME280;13745;51.470;9.894;2023-05-22T06:16:37;99146.31;;;23.68;64.70
25947;BME280;13745;51.470;9.894;2023-05-22T06:19:22;99138.16;;;23.71;64.44
25947;BME280;13745;51.470;9.894;2023-05-22T06:22:07;99146.63;;;23.76;64.57
25947;BME280;13745;51.470;9.894;2023-05-22T06:24:53;99147.25;;;23.80;64.50
25947;BME280;13745;51.470;9.894;2023-05-22T06:27:42;99141.50;;;23.86;64.63
25947;BME280;13745;51.470;9.894;2023-05-22T06:30:27;99142.13;;;23.90;64.55
25947;BME280;13745;51.470;9.894;2023-05-22T06:33:15;99135.56;;;23.95;64.40
25947;BME280;13745;51.470;9.894;2023-05-22T06:36:00;99146.13;;;24.08;64.30
25947;BME280;13745;51.470;9.894;2023-05-22T06:38:47;99141.81;;;24.18;64.27
25947;BME280;13745;51.470;9.894;2023-05-22T06:41:52;99135.72;;;24.29;64.17
25947;BME280;13745;51.470;9.894;2023-05-22T06:44:37;99130.75;;;24.37;63.74
25947;BME280;13745;51.470;9.894;2023-05-22T06:47:23;99131.13;;;24.44;63.81
25947;BME280;13745;51.470;9.894;2023-05-22T06:50:11;99132.25;;;24.52;63.76
25947;BME280;13745;51.470;9.894;2023-05-22T06:52:55;99131.69;;;24.60;63.84
25947;BME280;13745;51.470;9.894;2023-05-22T06:55:40;99128.66;;;24.64;63.55
25947;BME280;13745;51.470;9.894;2023-05-22T06:58:32;99132.44;;;24.73;63.37
25947;BME280;13745;51.470;9.894;2023-05-22T07:01:20;99137.03;;;24.82;63.65
25947;BME280;13745;51.470;9.894;2023-05-22T07:04:17;99137.69;;;24.97;63.10
25947;BME280;13745;51.470;9.894;2023-05-22T07:07:13;99132.53;;;25.07;62.71
25947;BME280;13745;51.470;9.894;2023-05-22T07:09:59;99141.38;;;25.18;62.87
25947;BME280;13745;51.470;9.894;2023-05-22T07:12:45;99135.84;;;25.33;62.38
25947;BME280;13745;51.470;9.894;2023-05-22T07:15:30;99138.88;;;25.51;62.52
25947;BME280;13745;51.470;9.894;2023-05-22T07:18:20;99134.88;;;25.67;62.14
25947;BME280;13745;51.470;9.894;2023-05-22T07:21:05;99140.31;;;25.88;61.46
25947;BME280;13745;51.470;9.894;2023-05-22T07:23:51;99136.19;;;26.07;61.95
25947;BME280;13745;51.470;9.894;2023-05-22T07:26:39;99141.81;;;26.24;60.88
25947;BME280;13745;51.470;9.894;2023-05-22T07:29:29;99150.94;;;26.43;60.75
25947;BME280;13745;51.470;9.894;2023-05-22T07:32:16;99142.41;;;26.60;60.62
25947;BME280;13745;51.470;9.894;2023-05-22T07:35:02;99140.44;;;26.73;60.28
25947;BME280;13745;51.470;9.894;2023-05-22T07:37:47;99136.59;;;26.87;60.35
25947;BME280;13745;51.470;9.894;2023-05-22T07:40:34;99135.56;;;26.99;59.51
25947;BME280;13745;51.470;9.894;2023-05-22T07:43:20;99137.78;;;27.15;59.34
25947;BME280;13745;51.470;9.894;2023-05-22T07:46:05;99137.41;;;27.29;59.55
25947;BME280;13745;51.470;9.894;2023-05-22T07:48:59;99123.75;;;27.43;59.52
25947;BME280;13745;51.470;9.894;2023-05-22T07:51:44;99126.50;;;27.63;58.62
25947;BME280;13745;51.470;9.894;2023-05-22T07:54:31;99121.28;;;27.82;58.61
25947;BME280;13745;51.470;9.894;2023-05-22T07:57:17;99124.13;;;28.00;58.01
25947;BME280;13745;51.470;9.894;2023-05-22T08:00:04;99126.78;;;28.19;58.16
25947;BME280;13745;51.470;9.894;2023-05-22T08:02:56;99126.72;;;28.40;57.46
25947;BME280;13745;51.470;9.894;2023-05-22T08:05:41;99127.84;;;28.57;57.53
25947;BME280;13745;51.470;9.894;2023-05-22T08:08:26;99123.63;;;28.74;57.43
25947;BME280;13745;51.470;9.894;2023-05-22T08:11:12;99124.44;;;28.94;56.67
25947;BME280;13745;51.470;9.894;2023-05-22T08:13:58;99123.00;;;29.09;56.37
25947;BME280;13745;51.470;9.894;2023-05-22T08:16:43;99125.75;;;29.27;55.98
25947;BME280;13745;51.470;9.894;2023-05-22T08:19:28;99116.44;;;29.41;56.08
25947;BME280;13745;51.470;9.894;2023-05-22T08:22:13;99117.13;;;29.52;55.88
25947;BME280;13745;51.470;9.894;2023-05-22T08:24:58;99116.78;;;29.65;55.77
25947;BME280;13745;51.470;9.894;2023-05-22T08:27:43;99122.75;;;29.77;55.49
25947;BME280;13745;51.470;9.894;2023-05-22T08:30:30;99107.50;;;29.87;54.27
25947;BME280;13745;51.470;9.894;2023-05-22T08:33:15;99111.66;;;29.99;54.03
25947;BME280;13745;51.470;9.894;2023-05-22T08:36:00;99109.50;;;30.12;54.05
25947;BME280;13745;51.470;9.894;2023-05-22T08:38:45;99103.59;;;30.27;53.77
25947;BME280;13745;51.470;9.894;2023-05-22T08:41:30;99105.75;;;30.41;53.87
25947;BME280;13745;51.470;9.894;2023-05-22T08:44:16;99107.19;;;30.53;53.10
25947;BME280;13745;51.470;9.894;2023-05-22T08:47:05;99097.97;;;30.65;53.42
25947;BME280;13745;51.470;9.894;2023-05-22T08:49:53;99102.28;;;30.84;53.34
25947;BME280;13745;51.470;9.894;2023-05-22T08:52:46;99098.72;;;31.01;53.71
25947;BME280;13745;51.470;9.894;2023-05-22T08:55:32;99093.28;;;31.19;52.12
25947;BME280;13745;51.470;9.894;2023-05-22T08:58:18;99098.75;;;31.36;51.64
25947;BME280;13745;51.470;9.894;2023-05-22T09:01:04;99093.16;;;31.55;52.17
25947;BME280;13745;51.470;9.894;2023-05-22T09:03:51;99083.19;;;31.73;51.73
25947;BME280;13745;51.470;9.894;2023-05-22T09:06:36;99092.63;;;31.94;51.18
25947;BME280;13745;51.470;9.894;2023-05-22T09:09:22;99088.66;;;32.06;50.91
25947;BME280;13745;51.470;9.894;2023-05-22T09:12:09;99084.81;;;32.17;50.73
25947;BME280;13745;51.470;9.894;2023-05-22T09:14:54;99081.81;;;32.28;49.34
25947;BME280;13745;51.470;9.894;2023-05-22T09:17:41;99087.53;;;32.41;48.66
25947;BME280;13745;51.470;9.894;2023-05-22T09:20:27;99084.88;;;32.49;48.70
25947;BME280;13745;51.470;9.894;2023-05-22T09:23:14;99080.16;;;32.59;48.50
25947;BME280;13745;51.470;9.894;2023-05-22T09:26:01;99078.47;;;32.66;47.90
25947;BME280;13745;51.470;9.894;2023-05-22T09:28:47;99083.19;;;32.73;47.70
25947;BME280;13745;51.470;9.894;2023-05-22T09:31:39;99079.81;;;32.79;48.18
25947;BME280;13745;51.470;9.894;2023-05-22T09:34:26;99077.25;;;33.10;48.20
25947;BME280;13745;51.470;9.894;2023-05-22T09:37:14;99073.63;;;32.94;47.61
25947;BME280;13745;51.470;9.894;2023-05-22T09:40:03;99067.56;;;32.92;46.73
25947;BME280;13745;51.470;9.894;2023-05-22T09:42:48;99067.53;;;33.01;46.09
25947;BME280;13745;51.470;9.894;2023-05-22T09:45:33;99066.84;;;33.07;46.22
25947;BME280;13745;51.470;9.894;2023-05-22T09:48:20;99071.03;;;33.09;46.17
25947;BME280;13745;51.470;9.894;2023-05-22T09:51:06;99070.19;;;33.17;46.16
25947;BME280;13745;51.470;9.894;2023-05-22T09:53:58;99071.34;;;33.22;46.37
25947;BME280;13745;51.470;9.894;2023-05-22T09:56:46;99064.53;;;33.51;46.47
25947;BME280;13745;51.470;9.894;2023-05-22T09:59:33;99064.09;;;33.39;46.13
25947;BME280;13745;51.470;9.894;2023-05-22T10:02:24;99069.78;;;33.44;45.41
25947;BME280;13745;51.470;9.894;2023-05-22T10:05:10;99067.91;;;33.53;45.66
25947;BME280;13745;51.470;9.894;2023-05-22T10:08:04;99060.13;;;33.58;45.24
25947;BME280;13745;51.470;9.894;2023-05-22T10:10:53;99062.97;;;33.65;45.23
25947;BME280;13745;51.470;9.894;2023-05-22T10:13:40;99061.91;;;33.74;45.17
25947;BME280;13745;51.470;9.894;2023-05-22T10:16:26;99061.84;;;33.82;44.71
25947;BME280;13745;51.470;9.894;2023-05-22T10:19:12;99062.16;;;33.87;45.16
25947;BME280;13745;51.470;9.894;2023-05-22T10:21:59;99059.66;;;33.94;45.40
25947;BME280;13745;51.470;9.894;2023-05-22T10:24:45;99054.03;;;34.03;45.02
25947;BME280;13745;51.470;9.894;2023-05-22T10:27:32;99050.72;;;34.16;44.09
25947;BME280;13745;51.470;9.894;2023-05-22T10:30:25;99049.94;;;34.30;44.53
25947;BME280;13745;51.470;9.894;2023-05-22T10:33:55;99050.69;;;34.47;44.53
25947;BME280;13745;51.470;9.894;2023-05-22T10:36:50;99053.28;;;34.55;44.43
25947;BME280;13745;51.470;9.894;2023-05-22T10:39:42;99043.66;;;34.61;44.67
25947;BME280;13745;51.470;9.894;2023-05-22T10:42:33;99045.44;;;34.69;43.67
25947;BME280;13745;51.470;9.894;2023-05-22T10:45:21;99047.88;;;34.78;42.32
25947;BME280;13745;51.470;9.894;2023-05-22T10:48:07;99038.66;;;34.87;41.90
25947;BME280;13745;51.470;9.894;2023-05-22T10:50:53;99048.56;;;34.95;40.97
25947;BME280;13745;51.470;9.894;2023-05-22T10:53:38;99039.66;;;34.95;41.65
25947;BME280;13745;51.470;9.894;2023-05-22T10:56:31;99039.44;;;34.96;42.55
25947;BME280;13745;51.470;9.894;2023-05-22T10:59:32;99033.13;;;35.04;43.18
25947;BME280;13745;51.470;9.894;2023-05-22T11:02:19;99033.53;;;35.01;42.64
25947;BME280;13745;51.470;9.894;2023-05-22T11:05:33;99029.97;;;35.00;42.59
25947;BME280;13745;51.470;9.894;2023-05-22T11:08:35;99027.84;;;34.96;42.27
25947;BME280;13745;51.470;9.894;2023-05-22T11:11:24;99027.91;;;34.87;41.83
25947;BME280;13745;51.470;9.894;2023-05-22T11:14:10;99026.13;;;34.80;42.01
25947;BME280;13745;51.470;9.894;2023-05-22T11:17:00;99031.22;;;34.75;41.79
25947;BME280;13745;51.470;9.894;2023-05-22T11:19:59;99020.81;;;34.72;42.47
25947;BME280;13745;51.470;9.894;2023-05-22T11:22:51;99028.78;;;34.65;42.63
25947;BME280;13745;51.470;9.894;2023-05-22T11:25:39;99031.22;;;34.60;42.87
25947;BME280;13745;51.470;9.894;2023-05-22T11:28:25;99032.97;;;34.53;42.28
25947;BME280;13745;51.470;9.894;2023-05-22T11:31:11;99034.06;;;34.44;42.95
25947;BME280;13745;51.470;9.894;2023-05-22T11:33:58;99028.72;;;34.35;43.54
25947;BME280;13745;51.470;9.894;2023-05-22T11:36:43;99028.41;;;34.30;42.16
25947;BME280;13745;51.470;9.894;2023-05-22T11:39:31;99026.34;;;34.18;42.27
25947;BME280;13745;51.470;9.894;2023-05-22T11:42:17;99013.94;;;34.08;41.97
25947;BME280;13745;51.470;9.894;2023-05-22T11:45:03;99020.06;;;34.02;42.42
25947;BME280;13745;51.470;9.894;2023-05-22T11:47:49;99014.84;;;34.01;42.82
25947;BME280;13745;51.470;9.894;2023-05-22T11:50:36;99017.53;;;34.01;43.08
25947;BME280;13745;51.470;9.894;2023-05-22T11:53:21;99008.47;;;34.02;41.86
25947;BME280;13745;51.470;9.894;2023-05-22T11:56:07;99007.63;;;34.01;42.73
25947;BME280;13745;51.470;9.894;2023-05-22T11:58:52;99010.31;;;34.01;42.31
25947;BME280;13745;51.470;9.894;2023-05-22T12:01:37;99001.38;;;34.01;42.33
25947;BME280;13745;51.470;9.894;2023-05-22T12:04:22;99002.41;;;34.00;42.34
25947;BME280;13745;51.470;9.894;2023-05-22T12:07:09;98996.75;;;33.95;42.66
25947;BME280;13745;51.470;9.894;2023-05-22T12:09:55;98994.34;;;34.00;42.26
25947;BME280;13745;51.470;9.894;2023-05-22T12:12:43;98993.25;;;34.09;42.94
25947;BME280;13745;51.470;9.894;2023-05-22T12:15:28;98990.97;;;34.21;41.40
25947;BME280;13745;51.470;9.894;2023-05-22T12:18:14;98984.88;;;34.27;41.44
25947;BME280;13745;51.470;9.894;2023-05-22T12:21:04;98988.69;;;34.32;42.24
25947;BME280;13745;51.470;9.894;2023-05-22T12:23:51;98989.66;;;34.40;41.81
25947;BME280;13745;51.470;9.894;2023-05-22T12:26:36;98990.22;;;34.50;41.74
25947;BME280;13745;51.470;9.894;2023-05-22T12:29:22;98983.72;;;34.59;41.14
25947;BME280;13745;51.470;9.894;2023-05-22T12:32:09;98983.84;;;34.66;40.74
25947;BME280;13745;51.470;9.894;2023-05-22T12:34:56;98971.88;;;34.68;41.25
25947;BME280;13745;51.470;9.894;2023-05-22T12:37:47;98969.63;;;34.72;40.85
25947;BME280;13745;51.470;9.894;2023-05-22T12:40:33;98981.16;;;34.80;42.28
25947;BME280;13745;51.470;9.894;2023-05-22T12:43:19;98981.06;;;34.88;41.65
25947;BME280;13745;51.470;9.894;2023-05-22T12:46:04;98974.97;;;34.95;41.97
25947;BME280;13745;51.470;9.894;2023-05-22T12:48:50;98967.81;;;35.02;42.56
25947;BME280;13745;51.470;9.894;2023-05-22T12:51:35;98975.13;;;35.08;41.84
25947;BME280;13745;51.470;9.894;2023-05-22T12:54:20;98980.78;;;35.13;41.34
25947;BME280;13745;51.470;9.894;2023-05-22T12:57:07;98971.13;;;35.18;42.37
25947;BME280;13745;51.470;9.894;2023-05-22T12:59:52;98969.34;;;35.26;42.64
25947;BME280;13745;51.470;9.894;2023-05-22T13:02:37;98968.31;;;35.27;42.82
25947;BME280;13745;51.470;9.894;2023-05-22T13:05:22;98967.94;;;35.30;41.80
25947;BME280;13745;51.470;9.894;2023-05-22T13:08:08;98964.41;;;35.29;41.69
25947;BME280;13745;51.470;9.894;2023-05-22T13:10:53;98961.28;;;35.26;42.39
25947;BME280;13745;51.470;9.894;2023-05-22T13:13:39;98968.50;;;35.25;41.91
25947;BME280;13745;51.470;9.894;2023-05-22T13:16:25;98973.06;;;35.25;41.02
25947;BME280;13745;51.470;9.894;2023-05-22T13:19:09;98969.72;;;35.23;40.40
25947;BME280;13745;51.470;9.894;2023-05-22T13:21:54;98964.06;;;35.17;40.46
25947;BME280;13745;51.470;9.894;2023-05-22T13:24:40;98964.81;;;35.11;40.25
25947;BME280;13745;51.470;9.894;2023-05-22T13:27:25;98963.25;;;35.02;41.23
25947;BME280;13745;51.470;9.894;2023-05-22T13:30:12;98963.69;;;34.91;40.38
25947;BME280;13745;51.470;9.894;2023-05-22T13:32:57;98959.16;;;34.77;39.82
25947;BME280;13745;51.470;9.894;2023-05-22T13:35:43;98962.19;;;34.59;40.37
25947;BME280;13745;51.470;9.894;2023-05-22T13:38:28;98955.28;;;34.42;41.01
25947;BME280;13745;51.470;9.894;2023-05-22T13:41:13;98953.41;;;34.27;40.52
25947;BME280;13745;51.470;9.894;2023-05-22T13:44:00;98953.38;;;34.13;40.84
25947;BME280;13745;51.470;9.894;2023-05-22T13:46:46;98951.28;;;34.00;40.95
25947;BME280;13745;51.470;9.894;2023-05-22T13:49:31;98950.50;;;33.91;40.99
25947;BME280;13745;51.470;9.894;2023-05-22T13:52:17;98946.81;;;33.84;41.08
25947;BME280;13745;51.470;9.894;2023-05-22T13:55:03;98939.69;;;33.76;41.61
25947;BME280;13745;51.470;9.894;2023-05-22T13:57:48;98943.91;;;33.71;41.87
25947;BME280;13745;51.470;9.894;2023-05-22T14:00:33;98939.91;;;33.67;42.28
25947;BME280;13745;51.470;9.894;2023-05-22T14:03:19;98931.38;;;33.63;41.76
25947;BME280;13745;51.470;9.894;2023-05-22T14:06:04;98938.09;;;33.59;41.80
25947;BME280;13745;51.470;9.894;2023-05-22T14:08:49;98929.56;;;33.56;41.63
25947;BME280;13745;51.470;9.894;2023-05-22T14:11:35;98929.81;;;33.46;41.67
25947;BME280;13745;51.470;9.894;2023-05-22T14:14:20;98927.19;;;33.38;42.09
25947;BME280;13745;51.470;9.894;2023-05-22T14:17:07;98923.47;;;33.31;42.28
25947;BME280;13745;51.470;9.894;2023-05-22T14:19:53;98913.16;;;33.19;41.91
25947;BME280;13745;51.470;9.894;2023-05-22T14:22:38;98918.38;;;33.13;41.56
25947;BME280;13745;51.470;9.894;2023-05-22T14:25:24;98915.09;;;33.03;42.21
25947;BME280;13745;51.470;9.894;2023-05-22T14:28:09;98913.09;;;32.96;43.12
25947;BME280;13745;51.470;9.894;2023-05-22T14:30:54;98908.91;;;32.94;41.85
25947;BME280;13745;51.470;9.894;2023-05-22T14:33:39;98904.88;;;32.90;42.13
25947;BME280;13745;51.470;9.894;2023-05-22T14:36:26;98903.56;;;32.86;43.11
25947;BME280;13745;51.470;9.894;2023-05-22T14:39:11;98910.63;;;32.87;43.22
25947;BME280;13745;51.470;9.894;2023-05-22T14:41:56;98902.75;;;32.85;43.41
25947;BME280;13745;51.470;9.894;2023-05-22T14:44:41;98904.56;;;32.85;43.12
25947;BME280;13745;51.470;9.894;2023-05-22T14:47:26;98903.88;;;32.83;43.64